createdAt,value
2018-09-02T00:00:06.162Z,9.74
2018-09-02T00:01:06.156Z,9.75
2018-09-02T00:02:06.143Z,9.71
2018-09-02T00:03:06.134Z,9.71
2018-09-02T00:04:06.145Z,9.67
2018-09-02T00:05:06.113Z,9.71
2018-09-02T00:06:06.101Z,9.70
2018-09-02T00:07:06.089Z,9.67
2018-09-02T00:08:06.078Z,9.59
2018-09-02T00:09:06.098Z,9.63
2018-09-02T00:10:06.056Z,9.58
2018-09-02T00:11:06.051Z,9.58
2018-09-02T00:12:06.036Z,9.59
2018-09-02T00:13:06.025Z,9.50
2018-09-02T00:14:06.017Z,9.70
2018-09-02T00:15:06.030Z,9.62
2018-09-02T00:16:06.009Z,9.52
2018-09-02T00:17:06.021Z,9.63
2018-09-02T00:18:05.973Z,9.65
2018-09-02T00:19:05.959Z,9.56
2018-09-02T00:20:05.991Z,9.56
2018-09-02T00:21:05.940Z,9.59
2018-09-02T00:22:05.948Z,9.56
2018-09-02T00:23:05.920Z,9.59
2018-09-02T00:24:05.907Z,9.56
2018-09-02T00:25:05.922Z,9.49
2018-09-02T00:26:05.888Z,9.49
2018-09-02T00:27:05.873Z,9.49
2018-09-02T00:28:05.863Z,9.45
2018-09-02T00:29:05.853Z,9.42
2018-09-02T00:30:05.871Z,9.40
2018-09-02T00:31:05.830Z,9.32
2018-09-02T00:32:05.819Z,9.34
2018-09-02T00:33:05.843Z,9.31
2018-09-02T00:34:05.807Z,9.32
2018-09-02T00:35:05.789Z,9.40
2018-09-02T00:36:05.806Z,9.30
2018-09-02T00:37:05.774Z,9.31
2018-09-02T00:38:05.759Z,9.34
2018-09-02T00:39:05.745Z,9.23
2018-09-02T00:40:05.734Z,9.20
2018-09-02T00:41:05.750Z,9.31
2018-09-02T00:42:05.709Z,9.24
2018-09-02T00:43:05.708Z,9.17
2018-09-02T00:44:05.689Z,9.15
2018-09-02T00:45:05.677Z,9.13
2018-09-02T00:46:05.666Z,9.19
2018-09-02T00:47:05.682Z,9.20
2018-09-02T00:48:05.646Z,9.15
2018-09-02T00:49:05.638Z,9.19
2018-09-02T00:50:05.624Z,9.16
2018-09-02T00:51:05.613Z,9.10
2018-09-02T00:52:05.631Z,9.12
2018-09-02T00:53:05.590Z,9.16
2018-09-02T00:54:05.582Z,9.12
2018-09-02T00:55:05.571Z,8.98
2018-09-02T00:56:05.559Z,9.08
2018-09-02T00:57:05.586Z,9.13
2018-09-02T00:58:05.537Z,9.00
2018-09-02T00:59:05.527Z,9.00
2018-09-02T01:00:05.520Z,9.10
2018-09-02T01:01:05.507Z,9.10
2018-09-02T01:02:05.494Z,9.06
2018-09-02T01:03:05.506Z,8.97
2018-09-02T01:04:05.471Z,9.08
2018-09-02T01:05:05.463Z,9.08
2018-09-02T01:06:05.452Z,9.00
2018-09-02T01:07:05.441Z,9.04
2018-09-02T01:08:05.462Z,9.04
2018-09-02T01:09:05.415Z,8.98
2018-09-02T01:10:05.406Z,9.04
2018-09-02T01:11:05.396Z,9.03
2018-09-02T01:12:05.385Z,9.08
2018-09-02T01:13:05.372Z,9.06
2018-09-02T01:14:05.400Z,9.03
2018-09-02T01:15:05.350Z,8.97
2018-09-02T01:16:05.341Z,8.94
2018-09-02T01:17:05.329Z,8.93
2018-09-02T01:18:05.318Z,9.00
2018-09-02T01:19:05.332Z,9.03
2018-09-02T01:20:05.294Z,8.86
2018-09-02T01:21:05.285Z,8.91
2018-09-02T01:22:05.273Z,8.96
2018-09-02T01:23:05.306Z,8.91
2018-09-02T01:24:05.287Z,8.78
2018-09-02T01:25:05.243Z,8.68
2018-09-02T01:26:05.228Z,8.76
2018-09-02T01:27:05.223Z,8.76
2018-09-02T01:28:05.208Z,8.76
2018-09-02T01:29:05.205Z,8.63
2018-09-02T01:30:08.005Z,8.65
2018-09-02T01:31:05.187Z,8.70
2018-09-02T01:32:05.164Z,8.76
2018-09-02T01:33:05.152Z,8.71
2018-09-02T01:34:05.143Z,8.78
2018-09-02T01:35:05.156Z,8.68
2018-09-02T01:36:05.130Z,8.68
2018-09-02T01:37:05.109Z,8.70
2018-09-02T01:38:05.096Z,8.58
2018-09-02T01:39:05.087Z,8.70
2018-09-02T01:40:05.108Z,8.64
2018-09-02T01:41:05.063Z,8.65
2018-09-02T01:42:05.056Z,8.63
2018-09-02T01:43:05.040Z,8.63
2018-09-02T01:44:05.030Z,8.60
2018-09-02T01:45:05.027Z,8.63
2018-09-02T01:46:05.031Z,8.71
2018-09-02T01:47:05.015Z,8.73
2018-09-02T01:48:04.992Z,8.54
2018-09-02T01:49:04.975Z,8.64
2018-09-02T01:50:04.966Z,8.68
2018-09-02T01:51:04.978Z,8.75
2018-09-02T01:52:04.945Z,8.70
2018-09-02T01:53:04.935Z,8.63
2018-09-02T01:54:04.923Z,8.60
2018-09-02T01:55:04.909Z,8.68
2018-09-02T01:56:04.933Z,8.55
2018-09-02T01:57:04.886Z,8.67
2018-09-02T01:58:04.879Z,8.63
2018-09-02T01:59:04.872Z,8.57
2018-09-02T02:00:04.853Z,8.61
2018-09-02T02:01:04.842Z,8.60
2018-09-02T02:02:04.856Z,8.50
2018-09-02T02:03:04.829Z,8.46
2018-09-02T02:04:04.810Z,8.49
2018-09-02T02:05:04.801Z,8.45
2018-09-02T02:06:04.789Z,8.39
2018-09-02T02:07:04.801Z,8.46
2018-09-02T02:08:04.771Z,8.47
2018-09-02T02:09:04.755Z,8.45
2018-09-02T02:10:04.746Z,8.46
2018-09-02T02:11:04.734Z,8.45
2018-09-02T02:12:04.755Z,8.37
2018-09-02T02:13:04.711Z,8.40
2018-09-02T02:14:04.700Z,8.40
2018-09-02T02:15:04.693Z,8.46
2018-09-02T02:16:04.681Z,8.39
2018-09-02T02:17:04.671Z,8.39
2018-09-02T02:18:04.680Z,8.42
2018-09-02T02:19:04.647Z,8.42
2018-09-02T02:20:04.637Z,8.40
2018-09-02T02:21:04.624Z,8.34
2018-09-02T02:22:04.618Z,8.36
2018-09-02T02:23:04.628Z,8.27
2018-09-02T02:24:04.595Z,8.22
2018-09-02T02:25:04.583Z,8.31
2018-09-02T02:26:04.569Z,8.22
2018-09-02T02:27:04.561Z,8.21
2018-09-02T02:28:04.573Z,8.31
2018-09-02T02:29:04.537Z,8.31
2018-09-02T02:30:04.533Z,8.34
2018-09-02T02:31:04.515Z,8.22
2018-09-02T02:32:04.504Z,8.20
2018-09-02T02:33:04.521Z,8.22
2018-09-02T02:34:04.487Z,8.13
2018-09-02T02:35:04.472Z,8.24
2018-09-02T02:36:04.461Z,8.13
2018-09-02T02:37:04.449Z,8.20
2018-09-02T02:38:04.439Z,8.13
2018-09-02T02:39:04.451Z,8.09
2018-09-02T02:40:04.416Z,8.13
2018-09-02T02:41:04.412Z,8.14
2018-09-02T02:42:04.395Z,8.03
2018-09-02T02:43:04.383Z,8.03
2018-09-02T02:44:04.396Z,7.99
2018-09-02T02:45:04.364Z,8.03
2018-09-02T02:46:04.355Z,8.00
2018-09-02T02:47:04.338Z,8.12
2018-09-02T02:48:04.328Z,8.07
2018-09-02T02:49:04.343Z,8.12
2018-09-02T02:50:04.306Z,8.06
2018-09-02T02:51:04.297Z,8.06
2018-09-02T02:52:04.283Z,8.02
2018-09-02T02:53:04.279Z,7.99
2018-09-02T02:54:04.323Z,8.12
2018-09-02T02:55:04.251Z,8.03
2018-09-02T02:56:04.243Z,7.99
2018-09-02T02:57:04.234Z,8.04
2018-09-02T02:58:04.220Z,8.02
2018-09-02T02:59:04.208Z,8.04
2018-09-02T03:00:04.235Z,8.03
2018-09-02T03:01:04.190Z,8.04
2018-09-02T03:02:04.176Z,7.99
2018-09-02T03:03:04.166Z,8.03
2018-09-02T03:04:04.157Z,8.00
2018-09-02T03:05:04.144Z,7.99
2018-09-02T03:06:04.156Z,8.03
2018-09-02T03:07:04.121Z,7.95
2018-09-02T03:08:04.115Z,7.96
2018-09-02T03:09:04.100Z,8.06
2018-09-02T03:10:04.092Z,8.04
2018-09-02T03:11:04.103Z,7.95
2018-09-02T03:12:04.066Z,7.99
2018-09-02T03:13:04.054Z,7.96
2018-09-02T03:14:04.052Z,8.03
2018-09-02T03:15:04.032Z,7.96
2018-09-02T03:16:04.047Z,7.89
2018-09-02T03:17:04.028Z,8.00
2018-09-02T03:18:04.005Z,7.89
2018-09-02T03:19:03.989Z,7.95
2018-09-02T03:20:03.982Z,7.91
2018-09-02T03:21:03.991Z,7.79
2018-09-02T03:22:03.960Z,7.88
2018-09-02T03:23:03.949Z,7.88
2018-09-02T03:24:03.935Z,7.79
2018-09-02T03:25:03.929Z,7.77
2018-09-02T03:26:03.940Z,7.79
2018-09-02T03:27:03.903Z,7.77
2018-09-02T03:28:03.892Z,7.81
2018-09-02T03:29:03.882Z,7.77
2018-09-02T03:30:03.870Z,7.77
2018-09-02T03:31:03.907Z,7.81
2018-09-02T03:32:03.849Z,7.81
2018-09-02T03:33:03.840Z,7.69
2018-09-02T03:34:03.827Z,7.66
2018-09-02T03:35:03.822Z,7.84
2018-09-02T03:36:03.808Z,7.77
2018-09-02T03:37:03.819Z,7.85
2018-09-02T03:38:03.784Z,7.79
2018-09-02T03:39:03.772Z,7.77
2018-09-02T03:40:03.761Z,7.77
2018-09-02T03:41:03.753Z,7.79
2018-09-02T03:42:03.740Z,7.74
2018-09-02T03:43:03.752Z,7.74
2018-09-02T03:44:03.716Z,7.84
2018-09-02T03:45:03.708Z,7.81
2018-09-02T03:46:03.704Z,7.79
2018-09-02T03:47:03.684Z,7.79
2018-09-02T03:48:03.697Z,7.69
2018-09-02T03:49:03.664Z,7.73
2018-09-02T03:50:03.657Z,7.81
2018-09-02T03:51:03.640Z,7.73
2018-09-02T03:52:03.631Z,7.73
2018-09-02T03:53:03.649Z,7.74
2018-09-02T03:54:03.611Z,7.66
2018-09-02T03:55:03.597Z,7.66
2018-09-02T03:56:03.592Z,7.71
2018-09-02T03:57:03.575Z,7.69
2018-09-02T03:58:03.588Z,7.71
2018-09-02T03:59:03.557Z,7.74
2018-09-02T04:00:03.547Z,7.71
2018-09-02T04:01:03.531Z,7.67
2018-09-02T04:02:03.519Z,7.70
2018-09-02T04:03:03.544Z,7.70
2018-09-02T04:04:03.499Z,7.66
2018-09-02T04:05:03.487Z,7.69
2018-09-02T04:06:03.478Z,7.77
2018-09-02T04:07:03.468Z,7.67
2018-09-02T04:08:03.452Z,7.66
2018-09-02T04:09:03.478Z,7.69
2018-09-02T04:10:03.436Z,7.66
2018-09-02T04:11:03.423Z,7.69
2018-09-02T04:12:03.412Z,7.69
2018-09-02T04:13:03.399Z,7.63
2018-09-02T04:14:03.455Z,7.69
2018-09-02T04:15:03.410Z,7.79
2018-09-02T04:16:03.367Z,7.63
2018-09-02T04:17:03.357Z,7.54
2018-09-02T04:18:03.346Z,7.54
2018-09-02T04:19:03.340Z,7.66
2018-09-02T04:20:03.349Z,7.67
2018-09-02T04:21:03.315Z,7.69
2018-09-02T04:22:03.301Z,7.70
2018-09-02T04:23:03.291Z,7.70
2018-09-02T04:24:03.284Z,7.63
2018-09-02T04:25:03.295Z,7.66
2018-09-02T04:26:03.257Z,7.66
2018-09-02T04:27:03.247Z,7.62
2018-09-02T04:28:03.236Z,7.69
2018-09-02T04:29:03.233Z,7.54
2018-09-02T04:30:03.243Z,7.54
2018-09-02T04:31:03.203Z,7.58
2018-09-02T04:32:03.192Z,7.55
2018-09-02T04:33:03.183Z,7.51
2018-09-02T04:34:03.172Z,7.55
2018-09-02T04:35:03.192Z,7.54
2018-09-02T04:36:03.153Z,7.54
2018-09-02T04:37:03.138Z,7.55
2018-09-02T04:38:03.127Z,7.54
2018-09-02T04:39:03.117Z,7.58
2018-09-02T04:40:03.109Z,7.51
2018-09-02T04:41:03.123Z,7.48
2018-09-02T04:42:03.089Z,7.50
2018-09-02T04:43:03.074Z,7.57
2018-09-02T04:44:03.062Z,7.48
2018-09-02T04:45:03.066Z,7.47
2018-09-02T04:46:03.049Z,7.44
2018-09-02T04:47:03.058Z,7.48
2018-09-02T04:48:03.022Z,7.48
2018-09-02T04:49:03.011Z,7.48
2018-09-02T04:50:03.000Z,7.50
2018-09-02T04:51:03.023Z,7.55
2018-09-02T04:52:02.979Z,7.52
2018-09-02T04:53:02.970Z,7.55
2018-09-02T04:54:02.958Z,7.57
2018-09-02T04:55:02.948Z,7.45
2018-09-02T04:56:02.964Z,7.48
2018-09-02T04:57:02.925Z,7.45
2018-09-02T04:58:02.920Z,7.44
2018-09-02T04:59:02.906Z,7.48
2018-09-02T05:00:02.894Z,7.52
2018-09-02T05:01:02.891Z,7.54
2018-09-02T05:02:02.910Z,7.50
2018-09-02T05:03:02.863Z,7.51
2018-09-02T05:04:02.855Z,7.60
2018-09-02T05:05:02.847Z,7.50
2018-09-02T05:06:02.832Z,7.47
2018-09-02T05:07:02.843Z,7.47
2018-09-02T05:08:02.810Z,7.47
2018-09-02T05:09:02.799Z,7.47
2018-09-02T05:10:02.796Z,7.52
2018-09-02T05:11:02.777Z,7.51
2018-09-02T05:12:02.795Z,7.47
2018-09-02T05:13:02.757Z,7.51
2018-09-02T05:14:02.791Z,7.52
2018-09-02T05:15:02.736Z,7.63
2018-09-02T05:16:02.724Z,7.62
2018-09-02T05:17:02.740Z,7.71
2018-09-02T05:18:02.701Z,7.63
2018-09-02T05:19:02.692Z,7.71
2018-09-02T05:20:02.679Z,7.66
2018-09-02T05:21:02.670Z,7.62
2018-09-02T05:22:02.683Z,7.67
2018-09-02T05:23:02.649Z,7.69
2018-09-02T05:24:02.637Z,7.67
2018-09-02T05:25:02.627Z,7.69
2018-09-02T05:26:02.615Z,7.77
2018-09-02T05:27:02.646Z,7.73
2018-09-02T05:28:02.611Z,7.67
2018-09-02T05:29:02.581Z,7.79
2018-09-02T05:30:02.574Z,7.76
2018-09-02T05:31:02.560Z,7.81
2018-09-02T05:32:02.549Z,7.77
2018-09-02T05:33:02.568Z,7.86
2018-09-02T05:34:02.529Z,7.94
2018-09-02T05:35:02.537Z,7.88
2018-09-02T05:36:02.504Z,7.92
2018-09-02T05:37:02.570Z,7.94
2018-09-02T05:38:02.488Z,7.92
2018-09-02T05:39:02.505Z,7.91
2018-09-02T05:40:02.468Z,7.89
2018-09-02T05:41:02.457Z,7.95
2018-09-02T05:42:02.445Z,8.09
2018-09-02T05:43:02.429Z,8.02
2018-09-02T05:44:02.592Z,8.03
2018-09-02T05:45:02.412Z,8.24
2018-09-02T05:46:02.398Z,8.21
2018-09-02T05:47:02.388Z,8.29
2018-09-02T05:48:02.431Z,8.36
2018-09-02T05:49:02.392Z,8.43
2018-09-02T05:50:02.355Z,8.46
2018-09-02T05:51:02.345Z,8.50
2018-09-02T05:52:02.339Z,8.68
2018-09-02T05:53:02.321Z,8.61
2018-09-02T05:54:02.344Z,8.86
2018-09-02T05:55:02.300Z,8.89
2018-09-02T05:56:02.302Z,8.94
2018-09-02T05:57:02.283Z,9.13
2018-09-02T05:58:02.268Z,9.20
2018-09-02T05:59:02.259Z,9.27
2018-09-02T06:00:02.272Z,9.37
2018-09-02T06:01:02.236Z,9.38
2018-09-02T06:02:02.229Z,9.55
2018-09-02T06:03:02.216Z,9.65
2018-09-02T06:04:02.207Z,9.75
2018-09-02T06:05:02.243Z,9.91
2018-09-02T06:06:02.186Z,9.89
2018-09-02T06:07:02.173Z,9.99
2018-09-02T06:08:02.169Z,10.01
2018-09-02T06:09:02.155Z,10.14
2018-09-02T06:10:02.141Z,10.11
2018-09-02T06:11:02.164Z,10.28
2018-09-02T06:12:02.119Z,10.26
2018-09-02T06:13:02.110Z,10.34
2018-09-02T06:14:02.097Z,10.29
2018-09-02T06:15:02.102Z,10.36
2018-09-02T06:16:02.102Z,10.38
2018-09-02T06:17:02.068Z,10.46
2018-09-02T06:18:02.055Z,10.47
2018-09-02T06:19:02.046Z,10.51
2018-09-02T06:20:02.038Z,10.60
2018-09-02T06:21:02.061Z,10.63
2018-09-02T06:22:02.016Z,10.78
2018-09-02T06:23:02.001Z,10.87
2018-09-02T06:24:01.993Z,10.91
2018-09-02T06:25:01.981Z,11.01
2018-09-02T06:26:01.972Z,11.09
2018-09-02T06:27:01.984Z,11.17
2018-09-02T06:28:01.950Z,11.33
2018-09-02T06:29:01.937Z,11.39
2018-09-02T06:30:01.999Z,11.49
2018-09-02T06:31:01.915Z,11.64
2018-09-02T06:32:01.928Z,11.70
2018-09-02T06:33:02.050Z,11.84
2018-09-02T06:34:01.882Z,11.82
2018-09-02T06:35:01.915Z,11.94
2018-09-02T06:36:01.863Z,11.98
2018-09-02T06:37:01.875Z,12.13
2018-09-02T06:38:01.841Z,12.19
2018-09-02T06:39:01.834Z,12.31
2018-09-02T06:40:01.819Z,12.19
2018-09-02T06:41:01.812Z,12.18
2018-09-02T06:42:01.821Z,12.01
2018-09-02T06:43:01.787Z,11.97
2018-09-02T06:44:01.776Z,12.08
2018-09-02T06:45:01.779Z,12.16
2018-09-02T06:46:01.754Z,12.13
2018-09-02T06:47:01.779Z,12.18
2018-09-02T06:48:01.736Z,12.12
2018-09-02T06:49:01.721Z,12.19
2018-09-02T06:50:01.726Z,12.33
2018-09-02T06:51:01.701Z,12.63
2018-09-02T06:52:01.692Z,12.92
2018-09-02T06:53:01.703Z,12.96
2018-09-02T06:54:01.670Z,13.19
2018-09-02T06:55:01.658Z,13.27
2018-09-02T06:56:01.648Z,13.38
2018-09-02T06:57:01.659Z,13.32
2018-09-02T06:58:01.654Z,13.39
2018-09-02T06:59:01.613Z,13.50
2018-09-02T07:00:01.627Z,13.68
2018-09-02T07:01:01.593Z,13.75
2018-09-02T07:02:01.582Z,13.88
2018-09-02T07:03:01.603Z,14.11
2018-09-02T07:04:01.563Z,14.26
2018-09-02T07:05:01.553Z,14.42
2018-09-02T07:06:01.542Z,14.75
2018-09-02T07:07:01.529Z,15.00
2018-09-02T07:08:01.522Z,15.28
2018-09-02T07:09:01.536Z,15.67
2018-09-02T07:10:01.511Z,16.14
2018-09-02T07:11:01.484Z,16.63
2018-09-02T07:12:01.475Z,17.05
2018-09-02T07:13:01.463Z,17.45
2018-09-02T07:14:01.488Z,17.79
2018-09-02T07:15:01.444Z,17.92
2018-09-02T07:16:01.433Z,17.71
2018-09-02T07:17:01.422Z,17.07
2018-09-02T07:18:01.410Z,16.55
2018-09-02T07:19:01.415Z,16.26
2018-09-02T07:20:01.425Z,15.70
2018-09-02T07:21:01.378Z,15.28
2018-09-02T07:22:01.377Z,15.05
2018-09-02T07:23:01.393Z,14.79
2018-09-02T07:24:01.347Z,14.75
2018-09-02T07:25:01.375Z,14.60
2018-09-02T07:26:01.327Z,14.71
2018-09-02T07:27:01.317Z,14.67
2018-09-02T07:28:01.304Z,14.71
2018-09-02T07:29:01.302Z,14.78
2018-09-02T07:30:01.281Z,14.75
2018-09-02T07:31:01.296Z,14.72
2018-09-02T07:32:01.265Z,14.75
2018-09-02T07:33:01.250Z,14.79
2018-09-02T07:34:01.247Z,14.80
2018-09-02T07:35:01.240Z,14.80
2018-09-02T07:36:01.240Z,14.74
2018-09-02T07:37:01.209Z,14.71
2018-09-02T07:38:01.201Z,14.78
2018-09-02T07:39:01.183Z,14.72
2018-09-02T07:40:01.176Z,14.80
2018-09-02T07:41:01.191Z,14.74
2018-09-02T07:42:01.155Z,14.83
2018-09-02T07:43:01.139Z,14.78
2018-09-02T07:44:01.184Z,14.83
2018-09-02T07:45:01.119Z,14.85
2018-09-02T07:46:01.109Z,14.94
2018-09-02T07:47:01.125Z,15.01
2018-09-02T07:48:01.093Z,15.03
2018-09-02T07:49:01.077Z,15.03
2018-09-02T07:50:01.069Z,15.04
2018-09-02T07:51:01.071Z,15.09
2018-09-02T07:52:01.074Z,15.09
2018-09-02T07:53:01.037Z,15.13
2018-09-02T07:54:01.031Z,15.18
2018-09-02T07:55:01.013Z,15.19
2018-09-02T07:56:01.003Z,15.23
2018-09-02T07:57:00.989Z,15.27
2018-09-02T07:58:01.005Z,15.31
2018-09-02T07:59:00.969Z,15.30
2018-09-02T08:00:00.995Z,15.43
2018-09-02T08:01:00.948Z,15.37
2018-09-02T08:02:00.946Z,15.46
2018-09-02T08:03:00.950Z,15.49
2018-09-02T08:04:00.915Z,15.52
2018-09-02T08:05:00.905Z,15.60
2018-09-02T08:06:00.895Z,15.60
2018-09-02T08:07:00.907Z,15.78
2018-09-02T08:08:00.904Z,15.74
2018-09-02T08:09:00.863Z,15.74
2018-09-02T08:10:00.852Z,15.91
2018-09-02T08:11:00.845Z,15.91
2018-09-02T08:12:00.838Z,15.98
2018-09-02T08:13:00.844Z,15.96
2018-09-02T08:14:00.845Z,16.03
2018-09-02T08:15:00.799Z,16.11
2018-09-02T08:16:00.787Z,16.16
2018-09-02T08:17:00.839Z,16.22
2018-09-02T08:18:00.766Z,16.26
2018-09-02T08:19:00.791Z,16.32
2018-09-02T08:20:00.776Z,16.32
2018-09-02T08:21:00.755Z,16.42
2018-09-02T08:22:00.724Z,16.41
2018-09-02T08:23:00.717Z,16.47
2018-09-02T08:24:00.709Z,16.51
2018-09-02T08:25:00.715Z,16.52
2018-09-02T08:26:00.679Z,16.59
2018-09-02T08:27:00.683Z,16.62
2018-09-02T08:28:00.659Z,16.66
2018-09-02T08:29:00.647Z,16.63
2018-09-02T08:30:00.660Z,16.69
2018-09-02T08:31:00.626Z,16.70
2018-09-02T08:32:00.630Z,16.72
2018-09-02T08:33:00.666Z,16.87
2018-09-02T08:34:00.594Z,16.84
2018-09-02T08:35:00.605Z,16.85
2018-09-02T08:36:00.572Z,16.95
2018-09-02T08:37:00.567Z,17.00
2018-09-02T08:38:00.552Z,17.03
2018-09-02T08:39:00.558Z,17.15
2018-09-02T08:40:00.559Z,17.32
2018-09-02T08:41:00.519Z,17.35
2018-09-02T08:42:00.509Z,17.39
2018-09-02T08:43:00.498Z,17.42
2018-09-02T08:44:00.494Z,17.51
2018-09-02T08:45:00.478Z,17.43
2018-09-02T08:46:00.491Z,17.40
2018-09-02T08:47:00.455Z,17.54
2018-09-02T08:48:00.445Z,17.60
2018-09-02T08:49:00.437Z,17.68
2018-09-02T08:50:00.421Z,17.71
2018-09-02T08:51:00.411Z,17.80
2018-09-02T08:52:00.442Z,17.80
2018-09-02T08:53:00.388Z,17.86
2018-09-02T08:54:00.387Z,17.91
2018-09-02T08:55:00.402Z,17.92
2018-09-02T08:56:00.423Z,18.07
2018-09-02T08:57:00.370Z,18.14
2018-09-02T08:58:00.334Z,18.17
2018-09-02T08:59:00.326Z,18.34
2018-09-02T09:00:00.316Z,18.32
2018-09-02T09:01:00.309Z,18.39
2018-09-02T09:02:00.321Z,18.49
2018-09-02T09:03:00.284Z,18.56
2018-09-02T09:04:00.274Z,18.69
2018-09-02T09:05:00.273Z,18.57
2018-09-02T09:06:00.253Z,18.66
2018-09-02T09:07:00.251Z,18.71
2018-09-02T09:08:00.411Z,18.79
2018-09-02T09:09:00.637Z,18.84
2018-09-02T09:10:00.208Z,19.01
2018-09-02T09:11:00.210Z,18.93
2018-09-02T09:12:00.209Z,19.07
2018-09-02T09:13:00.290Z,19.02
2018-09-02T09:14:00.231Z,19.10
2018-09-02T09:15:00.163Z,19.13
2018-09-02T09:16:00.150Z,19.17
2018-09-02T09:17:00.182Z,19.31
2018-09-02T09:18:00.124Z,19.39
2018-09-02T09:19:00.147Z,19.39
2018-09-02T09:20:00.102Z,19.45
2018-09-02T09:21:00.091Z,19.45
2018-09-02T09:22:00.082Z,19.45
2018-09-02T09:23:00.071Z,19.57
2018-09-02T09:24:00.169Z,19.70
2018-09-02T09:25:00.088Z,19.76
2018-09-02T09:26:00.042Z,19.80
2018-09-02T09:27:00.027Z,19.89
2018-09-02T09:28:00.015Z,19.94
2018-09-02T09:29:00.031Z,19.92
2018-09-02T09:29:59.994Z,20.04
2018-09-02T09:30:59.984Z,20.04
2018-09-02T09:31:59.991Z,20.12
2018-09-02T09:32:59.972Z,20.22
2018-09-02T09:34:00.018Z,20.15
2018-09-02T09:34:59.940Z,20.26
2018-09-02T09:35:59.928Z,20.25
2018-09-02T09:36:59.919Z,20.40
2018-09-02T09:37:59.913Z,20.53
2018-09-02T09:38:59.898Z,20.69
2018-09-02T09:39:59.920Z,20.78
2018-09-02T09:40:59.875Z,21.03
2018-09-02T09:41:59.866Z,21.11
2018-09-02T09:42:59.869Z,21.24
2018-09-02T09:43:59.844Z,21.34
2018-09-02T09:44:59.854Z,21.38
2018-09-02T09:45:59.836Z,21.71
2018-09-02T09:46:59.824Z,21.85
2018-09-02T09:47:59.805Z,21.85
2018-09-02T09:48:59.801Z,21.93
2018-09-02T09:49:59.801Z,22.09
2018-09-02T09:50:59.792Z,22.24
2018-09-02T09:51:59.769Z,22.30
2018-09-02T09:52:59.746Z,22.27
2018-09-02T09:53:59.739Z,22.39
2018-09-02T09:54:59.733Z,22.39
2018-09-02T09:55:59.779Z,22.39
2018-09-02T09:56:59.704Z,22.45
2018-09-02T09:57:59.694Z,22.57
2018-09-02T09:58:59.703Z,22.69
2018-09-02T09:59:59.677Z,22.72
2018-09-02T10:00:59.687Z,22.84
2018-09-02T10:01:59.665Z,22.81
2018-09-02T10:02:59.641Z,22.97
2018-09-02T10:03:59.633Z,22.97
2018-09-02T10:04:59.642Z,23.04
2018-09-02T10:05:59.682Z,23.14
2018-09-02T10:06:59.599Z,23.22
2018-09-02T10:07:59.603Z,23.29
2018-09-02T10:08:59.577Z,23.32
2018-09-02T10:09:59.612Z,23.35
2018-09-02T10:10:59.572Z,23.34
2018-09-02T10:11:59.578Z,23.45
2018-09-02T10:12:59.537Z,23.62
2018-09-02T10:13:59.546Z,23.63
2018-09-02T10:14:59.537Z,23.63
2018-09-02T10:15:59.507Z,23.59
2018-09-02T10:16:59.549Z,23.68
2018-09-02T10:17:59.512Z,23.81
2018-09-02T10:18:59.471Z,23.81
2018-09-02T10:19:59.462Z,23.62
2018-09-02T10:20:59.449Z,23.63
2018-09-02T10:21:59.495Z,23.63
2018-09-02T10:22:59.447Z,23.75
2018-09-02T10:23:59.430Z,23.93
2018-09-02T10:24:59.414Z,23.94
2018-09-02T10:25:59.397Z,23.87
2018-09-02T10:26:59.428Z,23.90
2018-09-02T10:27:59.378Z,23.99
2018-09-02T10:28:59.385Z,23.93
2018-09-02T10:29:59.353Z,23.90
2018-09-02T10:30:59.359Z,24.04
2018-09-02T10:31:59.339Z,24.05
2018-09-02T10:32:59.343Z,24.14
2018-09-02T10:33:59.316Z,24.08
2018-09-02T10:34:59.354Z,23.94
2018-09-02T10:35:59.298Z,23.93
2018-09-02T10:36:59.287Z,23.96
2018-09-02T10:37:59.306Z,24.04
2018-09-02T10:38:59.265Z,24.16
2018-09-02T10:39:59.249Z,24.18
2018-09-02T10:40:59.296Z,24.30
2018-09-02T10:41:59.239Z,24.27
2018-09-02T10:42:59.214Z,24.26
2018-09-02T10:43:59.228Z,24.42
2018-09-02T10:44:59.193Z,24.55
2018-09-02T10:45:59.183Z,24.52
2018-09-02T10:46:59.173Z,24.63
2018-09-02T10:47:59.165Z,24.84
2018-09-02T10:48:59.224Z,24.82
2018-09-02T10:49:59.142Z,24.83
2018-09-02T10:50:59.143Z,24.86
2018-09-02T10:51:59.137Z,24.93
2018-09-02T10:52:59.110Z,24.93
2018-09-02T10:53:59.192Z,24.87
2018-09-02T10:54:59.092Z,24.89
2018-09-02T10:55:59.081Z,24.89
2018-09-02T10:56:59.117Z,24.92
2018-09-02T10:57:59.065Z,24.89
2018-09-02T10:58:59.044Z,24.68
2018-09-02T10:59:59.060Z,24.36
2018-09-02T11:00:59.030Z,24.41
2018-09-02T11:01:59.019Z,24.46
2018-09-02T11:02:59.017Z,24.51
2018-09-02T11:03:59.009Z,24.61
2018-09-02T11:04:59.131Z,24.64
2018-09-02T11:05:58.972Z,24.70
2018-09-02T11:06:58.972Z,24.59
2018-09-02T11:07:58.969Z,24.46
2018-09-02T11:08:58.956Z,24.48
2018-09-02T11:09:58.978Z,24.59
2018-09-02T11:10:58.918Z,24.48
2018-09-02T11:11:58.952Z,24.48
2018-09-02T11:12:58.960Z,24.48
2018-09-02T11:13:59.069Z,24.30
2018-09-02T11:14:58.879Z,24.30
2018-09-02T11:15:58.897Z,24.18
2018-09-02T11:16:58.856Z,23.93
2018-09-02T11:17:58.859Z,23.93
2018-09-02T11:18:58.835Z,23.96
2018-09-02T11:19:58.878Z,23.93
2018-09-02T11:20:58.816Z,24.11
2018-09-02T11:21:58.803Z,24.14
2018-09-02T11:22:58.822Z,24.26
2018-09-02T11:23:58.790Z,24.24
2018-09-02T11:24:58.778Z,24.21
2018-09-02T11:25:58.786Z,24.30
2018-09-02T11:26:58.795Z,24.18
2018-09-02T11:27:58.739Z,24.19
2018-09-02T11:28:58.743Z,24.15
2018-09-02T11:29:58.724Z,24.21
2018-09-02T11:30:58.735Z,24.09
2018-09-02T11:31:58.716Z,23.97
2018-09-02T11:32:58.700Z,23.93
2018-09-02T11:33:58.682Z,23.90
2018-09-02T11:34:58.670Z,23.94
2018-09-02T11:35:58.683Z,23.78
2018-09-02T11:36:58.657Z,23.78
2018-09-02T11:37:58.643Z,23.82
2018-09-02T11:38:58.623Z,23.64
2018-09-02T11:39:58.617Z,23.54
2018-09-02T11:40:58.629Z,23.69
2018-09-02T11:41:58.589Z,23.54
2018-09-02T11:42:58.585Z,23.68
2018-09-02T11:43:58.567Z,23.67
2018-09-02T11:44:58.576Z,23.64
2018-09-02T11:45:58.569Z,23.69
2018-09-02T11:46:58.557Z,23.54
2018-09-02T11:47:58.531Z,23.53
2018-09-02T11:48:58.520Z,23.62
2018-09-02T11:49:58.506Z,23.67
2018-09-02T11:50:58.543Z,23.68
2018-09-02T11:51:58.505Z,23.56
2018-09-02T11:52:58.474Z,23.54
2018-09-02T11:53:58.476Z,23.56
2018-09-02T11:54:58.453Z,23.52
2018-09-02T11:55:58.472Z,23.38
2018-09-02T11:56:58.538Z,23.34
2018-09-02T11:57:58.483Z,23.26
2018-09-02T11:58:58.480Z,23.22
2018-09-02T11:59:58.401Z,23.11
2018-09-02T12:00:58.412Z,23.21
2018-09-02T12:01:58.380Z,23.21
2018-09-02T12:02:58.382Z,23.18
2018-09-02T12:03:58.417Z,23.12
2018-09-02T12:04:58.470Z,23.19
2018-09-02T12:05:58.363Z,23.23
2018-09-02T12:06:58.330Z,23.22
2018-09-02T12:07:58.314Z,23.23
2018-09-02T12:08:58.311Z,23.26
2018-09-02T12:09:58.297Z,23.31
2018-09-02T12:10:58.337Z,23.34
2018-09-02T12:11:58.271Z,23.35
2018-09-02T12:12:58.260Z,23.42
2018-09-02T12:13:58.324Z,23.37
2018-09-02T12:14:58.391Z,23.38
2018-09-02T12:15:58.286Z,23.39
2018-09-02T12:16:58.218Z,23.41
2018-09-02T12:17:58.206Z,23.44
2018-09-02T12:18:58.195Z,23.42
2018-09-02T12:19:58.207Z,23.42
2018-09-02T12:20:58.184Z,23.32
2018-09-02T12:21:58.224Z,23.41
2018-09-02T12:22:58.165Z,23.37
2018-09-02T12:23:58.154Z,23.35
2018-09-02T12:24:58.135Z,23.39
2018-09-02T12:25:58.127Z,23.44
2018-09-02T12:26:58.149Z,23.37
2018-09-02T12:27:58.108Z,23.38
2018-09-02T12:28:58.091Z,23.31
2018-09-02T12:29:58.081Z,23.37
2018-09-02T12:30:58.078Z,23.39
2018-09-02T12:31:58.074Z,23.26
2018-09-02T12:32:58.075Z,23.29
2018-09-02T12:33:58.047Z,23.22
2018-09-02T12:34:58.384Z,23.11
2018-09-02T12:35:58.016Z,23.07
2018-09-02T12:36:58.016Z,23.16
2018-09-02T12:37:58.034Z,23.09
2018-09-02T12:38:57.987Z,23.11
2018-09-02T12:39:57.974Z,23.04
2018-09-02T12:40:57.974Z,23.14
2018-09-02T12:41:57.960Z,23.11
2018-09-02T12:42:58.094Z,23.01
2018-09-02T12:43:57.933Z,23.00
2018-09-02T12:44:57.921Z,23.03
2018-09-02T12:45:57.929Z,22.97
2018-09-02T12:46:57.900Z,22.99
2018-09-02T12:47:58.097Z,22.99
2018-09-02T12:48:57.908Z,22.91
2018-09-02T12:49:57.893Z,22.88
2018-09-02T12:50:57.871Z,22.86
2018-09-02T12:51:57.852Z,22.85
2018-09-02T12:52:57.842Z,22.81
2018-09-02T12:53:57.867Z,22.70
2018-09-02T12:54:57.832Z,22.75
2018-09-02T12:55:57.829Z,22.72
2018-09-02T12:56:57.795Z,22.74
2018-09-02T12:57:57.795Z,22.74
2018-09-02T12:58:57.826Z,22.67
2018-09-02T12:59:57.773Z,22.67
2018-09-02T13:00:57.757Z,22.56
2018-09-02T13:01:57.742Z,22.46
2018-09-02T13:02:57.731Z,22.48
2018-09-02T13:03:57.756Z,22.41